createdAt,value
2022-09-04T00:00:08.672Z,99038.80
2022-09-04T00:01:57.438Z,99033.27
2022-09-04T00:03:13.706Z,99037.34
2022-09-04T00:04:21.401Z,99037.23
2022-09-04T00:05:36.307Z,99035.98
2022-09-04T00:06:55.444Z,99039.07
2022-09-04T00:08:17.660Z,99039.39
2022-09-04T00:09:41.017Z,99038.86
2022-09-04T00:11:00.661Z,99040.43
2022-09-04T00:12:08.804Z,99043.30
2022-09-04T00:13:15.062Z,99042.31
2022-09-04T00:14:22.560Z,99044.02
2022-09-04T00:15:35.410Z,99043.39
2022-09-04T00:17:03.363Z,99047.83
2022-09-04T00:18:31.016Z,99047.88
2022-09-04T00:19:43.879Z,99045.27
2022-09-04T00:20:55.198Z,99048.73
2022-09-04T00:22:00.359Z,99046.34
2022-09-04T00:23:11.456Z,99046.63
2022-09-04T00:24:21.630Z,99048.35
2022-09-04T00:26:02.913Z,99047.05
2022-09-04T00:27:29.138Z,99047.73
2022-09-04T00:28:42.841Z,99051.80
2022-09-04T00:30:02.416Z,99049.94
2022-09-04T00:31:15.972Z,99052.14
2022-09-04T00:32:38.691Z,99056.13
2022-09-04T00:34:03.063Z,99054.54
2022-09-04T00:35:13.893Z,99057.90
2022-09-04T00:36:18.366Z,99058.25
2022-09-04T00:37:24.960Z,99060.44
2022-09-04T00:38:26.492Z,99062.62
2022-09-04T00:39:50.351Z,99060.66
2022-09-04T00:41:15.724Z,99059.80
2022-09-04T00:42:42.175Z,99057.56
2022-09-04T00:44:14.801Z,99059.20
2022-09-04T00:46:05.964Z,99057.12
2022-09-04T00:47:23.123Z,99058.64
2022-09-04T00:48:30.727Z,99057.71
2022-09-04T00:50:01.173Z,99061.91
2022-09-04T00:51:17.144Z,99061.52
2022-09-04T00:52:57.470Z,99060.27
2022-09-04T00:54:08.907Z,99060.17
2022-09-04T00:55:22.460Z,99058.43
2022-09-04T00:56:41.296Z,99060.54
2022-09-04T00:58:12.638Z,99061.46
2022-09-04T00:59:48.338Z,99061.09
2022-09-04T01:00:53.993Z,99056.56
2022-09-04T01:02:09.080Z,99059.90
2022-09-04T01:03:30.217Z,99060.23
2022-09-04T01:04:50.688Z,99058.23
2022-09-04T01:05:56.726Z,99059.64
2022-09-04T01:07:05.026Z,99059.84
2022-09-04T01:08:20.480Z,99063.69
2022-09-04T01:09:32.255Z,99062.98
2022-09-04T01:11:04.663Z,99061.56
2022-09-04T01:12:17.608Z,99062.85
2022-09-04T01:13:45.262Z,99061.88
2022-09-04T01:15:17.740Z,99057.54
2022-09-04T01:16:41.683Z,99055.70
2022-09-04T01:18:00.073Z,99054.67
2022-09-04T01:19:25.317Z,99056.61
2022-09-04T01:20:44.893Z,99057.67
2022-09-04T01:22:16.211Z,99055.61
2022-09-04T01:23:36.056Z,99055.40
2022-09-04T01:25:03.264Z,99057.80
2022-09-04T01:26:24.785Z,99060.31
2022-09-04T01:27:50.029Z,99059.34
2022-09-04T01:29:19.345Z,99059.08
2022-09-04T01:30:22.375Z,99059.74
2022-09-04T01:31:36.619Z,99057.70
2022-09-04T01:33:04.585Z,99057.91
2022-09-04T01:34:19.781Z,99055.76
2022-09-04T01:35:34.537Z,99051.80
2022-09-04T01:36:45.489Z,99053.55
2022-09-04T01:38:07.428Z,99054.92
2022-09-04T01:39:09.372Z,99054.58
2022-09-04T01:40:35.074Z,99053.39
2022-09-04T01:41:56.801Z,99056.20
2022-09-04T01:43:07.033Z,99055.06
2022-09-04T01:44:11.182Z,99057.92
2022-09-04T01:45:20.136Z,99056.77
2022-09-04T01:47:00.937Z,99061.52
2022-09-04T01:48:08.078Z,99062.28
2022-09-04T01:49:23.175Z,99065.05
2022-09-04T01:50:31.408Z,99063.77
2022-09-04T01:51:54.802Z,99063.71
2022-09-04T01:53:11.648Z,99065.08
2022-09-04T01:54:44.159Z,99059.48
2022-09-04T01:56:09.806Z,99060.59
2022-09-04T01:57:29.656Z,99062.39
2022-09-04T01:58:54.945Z,99063.15
2022-09-04T02:00:06.328Z,99060.14
2022-09-04T02:01:32.943Z,99061.55
2022-09-04T02:02:56.641Z,99060.15
2022-09-04T02:04:21.133Z,99061.46
2022-09-04T02:05:30.973Z,99062.58
2022-09-04T02:07:02.778Z,99063.17
2022-09-04T02:08:26.501Z,99061.28
2022-09-04T02:09:53.799Z,99055.35
2022-09-04T02:11:16.370Z,99062.30
2022-09-04T02:12:55.221Z,99064.11
2022-09-04T02:14:29.561Z,99063.64
2022-09-04T02:15:58.456Z,99061.75
2022-09-04T02:17:12.868Z,99066.06
2022-09-04T02:18:26.523Z,99064.06
2022-09-04T02:19:47.857Z,99065.38
2022-09-04T02:21:28.650Z,99066.92
2022-09-04T02:22:50.158Z,99069.93
2022-09-04T02:24:30.778Z,99066.91
2022-09-04T02:25:51.067Z,99066.89
2022-09-04T02:27:06.811Z,99068.40
2022-09-04T02:28:22.184Z,99064.26
2022-09-04T02:29:29.594Z,99066.33
2022-09-04T02:30:44.796Z,99064.91
2022-09-04T02:32:18.515Z,99064.54
2022-09-04T02:33:42.966Z,99065.11
2022-09-04T02:35:20.865Z,99064.63
2022-09-04T02:36:47.485Z,99069.14
2022-09-04T02:38:04.823Z,99066.98
2022-09-04T02:39:53.924Z,99066.55
2022-09-04T02:40:58.609Z,99064.02
2022-09-04T02:42:39.860Z,99066.20
2022-09-04T02:44:02.955Z,99063.92
2022-09-04T02:45:07.612Z,99065.95
2022-09-04T02:46:37.374Z,99069.25
2022-09-04T02:48:00.236Z,99070.89
2022-09-04T02:49:20.615Z,99068.80
2022-09-04T02:51:13.737Z,99070.81
2022-09-04T02:52:46.230Z,99072.75
2022-09-04T02:54:21.329Z,99074.11
2022-09-04T02:55:52.785Z,99070.59
2022-09-04T02:57:03.021Z,99075.13
2022-09-04T02:58:29.177Z,99073.89
2022-09-04T02:59:59.293Z,99076.79
2022-09-04T03:01:15.008Z,99073.60
2022-09-04T03:02:34.648Z,99074.89
2022-09-04T03:03:53.555Z,99075.27
2022-09-04T03:05:25.323Z,99075.81
2022-09-04T03:06:58.993Z,99077.17
2022-09-04T03:08:15.590Z,99078.08
2022-09-04T03:09:29.750Z,99074.13
2022-09-04T03:10:44.561Z,99074.93
2022-09-04T03:11:57.661Z,99076.54
2022-09-04T03:13:28.183Z,99078.73
2022-09-04T03:14:44.896Z,99079.66
2022-09-04T03:16:04.265Z,99077.91
2022-09-04T03:17:14.458Z,99083.05
2022-09-04T03:18:55.269Z,99082.50
2022-09-04T03:20:06.283Z,99081.58
2022-09-04T03:21:19.261Z,99082.01
2022-09-04T03:22:31.933Z,99079.72
2022-09-04T03:23:50.705Z,99079.67
2022-09-04T03:25:06.387Z,99075.59
2022-09-04T03:26:19.432Z,99079.94
2022-09-04T03:27:22.094Z,99077.13
2022-09-04T03:29:05.334Z,99080.10
2022-09-04T03:30:09.197Z,99080.33
2022-09-04T03:31:24.657Z,99081.25
2022-09-04T03:32:35.067Z,99078.76
2022-09-04T03:33:50.318Z,99078.87
2022-09-04T03:35:27.382Z,99080.17
2022-09-04T03:36:43.593Z,99082.17
2022-09-04T03:38:02.220Z,99087.00
2022-09-04T03:39:29.727Z,99085.64
2022-09-04T03:40:50.012Z,99085.92
2022-09-04T03:42:05.507Z,99084.19
2022-09-04T03:43:34.645Z,99085.88
2022-09-04T03:44:47.457Z,99083.42
2022-09-04T03:46:00.073Z,99088.08
2022-09-04T03:47:24.673Z,99084.84
2022-09-04T03:48:36.407Z,99089.50
2022-09-04T03:50:10.580Z,99086.56
2022-09-04T03:51:38.288Z,99093.48
2022-09-04T03:53:10.033Z,99092.79
2022-09-04T03:54:42.548Z,99095.55
2022-09-04T03:56:02.445Z,99097.00
2022-09-04T03:57:34.553Z,99096.02
2022-09-04T03:58:54.479Z,99099.81
2022-09-04T04:00:15.446Z,99096.89
2022-09-04T04:01:25.985Z,99097.59
2022-09-04T04:02:39.465Z,99099.59
2022-09-04T04:03:47.011Z,99100.65
2022-09-04T04:05:20.573Z,99102.38
2022-09-04T04:06:51.378Z,99101.50
2022-09-04T04:08:17.944Z,99103.02
2022-09-04T04:09:40.136Z,99102.54
2022-09-04T04:11:12.549Z,99105.04
2022-09-04T04:12:58.125Z,99102.92
2022-09-04T04:14:37.602Z,99107.90
2022-09-04T04:16:24.834Z,99103.80
2022-09-04T04:18:16.113Z,99106.07
2022-09-04T04:19:28.914Z,99106.89
2022-09-04T04:20:44.492Z,99106.96
2022-09-04T04:22:25.536Z,99109.02
2022-09-04T04:23:56.475Z,99109.77
2022-09-04T04:25:13.455Z,99107.13
2022-09-04T04:26:26.201Z,99106.91
2022-09-04T04:27:49.312Z,99111.98
2022-09-04T04:29:08.529Z,99108.84
2022-09-04T04:30:17.715Z,99110.04
2022-09-04T04:31:27.646Z,99110.69
2022-09-04T04:33:07.582Z,99114.70
2022-09-04T04:34:40.934Z,99110.37
2022-09-04T04:36:17.622Z,99109.31
2022-09-04T04:37:27.755Z,99112.51
2022-09-04T04:38:47.605Z,99114.67
2022-09-04T04:40:18.899Z,99115.94
2022-09-04T04:42:02.609Z,99115.13
2022-09-04T04:43:31.076Z,99116.69
2022-09-04T04:45:20.837Z,99117.89
2022-09-04T04:46:44.807Z,99117.73
2022-09-04T04:48:24.987Z,99117.84
2022-09-04T04:50:06.383Z,99117.20
2022-09-04T04:51:32.602Z,99118.08
2022-09-04T04:53:02.180Z,99120.58
2022-09-04T04:54:22.449Z,99120.43
2022-09-04T04:55:59.859Z,99121.13
2022-09-04T04:57:27.431Z,99125.25
2022-09-04T04:58:47.090Z,99124.71
2022-09-04T05:00:05.182Z,99130.63
2022-09-04T05:01:20.889Z,99132.04
2022-09-04T05:02:36.872Z,99133.77
2022-09-04T05:04:04.242Z,99137.31
2022-09-04T05:05:26.550Z,99140.34
2022-09-04T05:06:41.718Z,99138.50
2022-09-04T05:07:52.401Z,99142.23
2022-09-04T05:08:56.744Z,99142.30
2022-09-04T05:10:09.378Z,99146.21
2022-09-04T05:11:44.482Z,99145.29
2022-09-04T05:13:20.102Z,99141.92
2022-09-04T05:14:58.626Z,99144.52
2022-09-04T05:16:19.539Z,99136.77
2022-09-04T05:17:43.911Z,99142.45
2022-09-04T05:19:07.181Z,99146.19
2022-09-04T05:20:14.939Z,99144.51
2022-09-04T05:21:30.990Z,99139.52
2022-09-04T05:23:05.480Z,99137.08
2022-09-04T05:24:18.313Z,99137.17
2022-09-04T05:26:12.700Z,99137.02
2022-09-04T05:27:20.137Z,99139.33
2022-09-04T05:28:21.676Z,99139.91
2022-09-04T05:29:52.638Z,99138.61
2022-09-04T05:31:24.815Z,99139.25
2022-09-04T05:32:43.822Z,99142.54
2022-09-04T05:33:57.614Z,99144.19
2022-09-04T05:35:09.722Z,99146.03
2022-09-04T05:36:30.094Z,99149.20
2022-09-04T05:37:53.203Z,99150.48
2022-09-04T05:38:54.786Z,99152.10
2022-09-04T05:40:04.078Z,99151.39
2022-09-04T05:41:24.189Z,99155.44
2022-09-04T05:42:54.748Z,99153.69
2022-09-04T05:44:17.448Z,99155.02
2022-09-04T05:45:25.822Z,99156.88
2022-09-04T05:46:33.375Z,99157.95
2022-09-04T05:47:56.081Z,99157.33
2022-09-04T05:49:18.582Z,99158.57
2022-09-04T05:50:42.015Z,99159.55
2022-09-04T05:52:12.877Z,99159.34
2022-09-04T05:53:43.530Z,99162.23
2022-09-04T05:55:01.104Z,99164.64
2022-09-04T05:56:21.054Z,99169.82
2022-09-04T05:57:46.285Z,99171.48
2022-09-04T05:58:47.877Z,99170.69
2022-09-04T06:00:07.145Z,99170.94
2022-09-04T06:01:52.388Z,99173.35
2022-09-04T06:03:24.725Z,99170.17
2022-09-04T06:05:03.453Z,99171.38
2022-09-04T06:06:27.346Z,99169.42
2022-09-04T06:07:56.189Z,99171.67
2022-09-04T06:09:39.408Z,99174.35
2022-09-04T06:11:13.133Z,99176.77
2022-09-04T06:12:23.834Z,99175.84
2022-09-04T06:13:42.842Z,99181.48
2022-09-04T06:15:30.622Z,99179.19
2022-09-04T06:17:06.011Z,99182.09
2022-09-04T06:18:32.401Z,99186.48
2022-09-04T06:19:54.965Z,99184.40
2022-09-04T06:21:18.341Z,99186.23
2022-09-04T06:22:39.874Z,99185.81
2022-09-04T06:23:53.358Z,99188.40
2022-09-04T06:25:05.681Z,99190.86
2022-09-04T06:26:33.255Z,99189.72
2022-09-04T06:27:40.852Z,99194.09
2022-09-04T06:29:00.484Z,99193.15
2022-09-04T06:30:14.511Z,99190.90
2022-09-04T06:31:18.881Z,99189.09
2022-09-04T06:33:06.199Z,99192.32
2022-09-04T06:35:03.493Z,99190.94
2022-09-04T06:36:24.278Z,99190.48
2022-09-04T06:37:55.492Z,99190.41
2022-09-04T06:39:22.742Z,99193.70
2022-09-04T06:40:55.097Z,99194.89
2022-09-04T06:42:23.865Z,99190.12
2022-09-04T06:43:55.836Z,99191.65
2022-09-04T06:45:11.345Z,99190.65
2022-09-04T06:46:41.698Z,99194.74
2022-09-04T06:48:40.432Z,99195.34
2022-09-04T06:50:22.860Z,99195.84
2022-09-04T06:51:53.162Z,99189.35
2022-09-04T06:53:33.435Z,99193.05
2022-09-04T06:55:02.048Z,99192.20
2022-09-04T06:56:29.646Z,99192.92
2022-09-04T06:57:54.559Z,99191.91
2022-09-04T06:59:16.109Z,99195.80
2022-09-04T07:00:19.970Z,99193.69
2022-09-04T07:02:04.223Z,99191.30
2022-09-04T07:03:29.223Z,99192.69
2022-09-04T07:04:49.212Z,99191.59
2022-09-04T07:05:56.301Z,99192.44
2022-09-04T07:07:00.790Z,99192.70
2022-09-04T07:08:10.507Z,99196.43
2022-09-04T07:09:23.129Z,99197.71
2022-09-04T07:10:34.424Z,99200.46
2022-09-04T07:12:05.161Z,99200.55
2022-09-04T07:13:25.501Z,99201.48
2022-09-04T07:14:52.066Z,99207.16
2022-09-04T07:16:34.837Z,99203.98
2022-09-04T07:18:06.549Z,99204.48
2022-09-04T07:19:36.475Z,99213.02
2022-09-04T07:21:10.805Z,99209.84
2022-09-04T07:22:40.427Z,99214.31
2022-09-04T07:24:13.718Z,99215.66
2022-09-04T07:25:29.835Z,99218.22
2022-09-04T07:26:53.269Z,99217.70
2022-09-04T07:28:20.660Z,99219.17
2022-09-04T07:29:36.398Z,99224.54
2022-09-04T07:31:04.662Z,99219.27
2022-09-04T07:32:42.804Z,99226.88
2022-09-04T07:33:50.811Z,99229.23
2022-09-04T07:35:21.190Z,99230.36
2022-09-04T07:36:32.931Z,99233.06
2022-09-04T07:37:58.339Z,99234.02
2022-09-04T07:39:30.242Z,99234.15
2022-09-04T07:40:52.961Z,99234.39
2022-09-04T07:42:18.370Z,99235.32
2022-09-04T07:43:34.961Z,99233.25
2022-09-04T07:45:00.755Z,99237.06
2022-09-04T07:46:22.636Z,99238.02
2022-09-04T07:47:43.034Z,99239.83
2022-09-04T07:49:05.959Z,99238.06
2022-09-04T07:50:10.489Z,99241.76
2022-09-04T07:51:28.641Z,99240.75
2022-09-04T07:53:03.653Z,99246.36
2022-09-04T07:54:22.554Z,99243.27
2022-09-04T07:55:37.249Z,99243.98
2022-09-04T07:56:54.867Z,99247.86
2022-09-04T07:58:19.827Z,99246.40
2022-09-04T07:59:33.558Z,99249.73
2022-09-04T08:01:08.782Z,99248.63
2022-09-04T08:02:38.009Z,99250.21
2022-09-04T08:04:09.890Z,99251.99
2022-09-04T08:05:24.107Z,99251.90
2022-09-04T08:06:56.586Z,99251.33
2022-09-04T08:08:16.643Z,99249.17
2022-09-04T08:09:46.914Z,99249.23
2022-09-04T08:11:13.412Z,99251.64
2022-09-04T08:12:33.488Z,99247.43
2022-09-04T08:13:44.270Z,99254.24
2022-09-04T08:15:13.605Z,99251.61
2022-09-04T08:16:36.160Z,99252.69
2022-09-04T08:18:08.879Z,99253.06
2022-09-04T08:19:40.701Z,99256.11
2022-09-04T08:21:01.457Z,99255.95
2022-09-04T08:22:05.932Z,99253.95
2022-09-04T08:23:53.040Z,99255.75
2022-09-04T08:25:12.248Z,99256.95
2022-09-04T08:26:29.420Z,99256.15
2022-09-04T08:27:42.945Z,99257.05
2022-09-04T08:29:00.173Z,99257.10
2022-09-04T08:30:04.685Z,99259.64
2022-09-04T08:31:20.791Z,99260.33
2022-09-04T08:32:43.135Z,99261.19
2022-09-04T08:34:10.204Z,99262.14
2022-09-04T08:35:30.348Z,99259.77
2022-09-04T08:36:47.762Z,99264.57
2022-09-04T08:38:20.522Z,99265.23
2022-09-04T08:39:53.224Z,99264.79
2022-09-04T08:41:18.049Z,99269.71
2022-09-04T08:42:22.487Z,99267.80
2022-09-04T08:43:53.965Z,99267.84
2022-09-04T08:45:33.162Z,99272.27
2022-09-04T08:47:22.475Z,99270.11
2022-09-04T08:48:32.838Z,99271.14
2022-09-04T08:49:56.320Z,99267.77
2022-09-04T08:51:18.578Z,99269.17
2022-09-04T08:52:53.245Z,99265.70
2022-09-04T08:54:16.394Z,99268.89
2022-09-04T08:55:46.871Z,99266.61
2022-09-04T08:57:33.663Z,99264.16
2022-09-04T08:59:03.166Z,99263.42
2022-09-04T09:00:18.140Z,99264.08
2022-09-04T09:01:41.295Z,99266.95
2022-09-04T09:02:51.833Z,99264.13
2022-09-04T09:04:12.268Z,99266.67
2022-09-04T09:05:44.766Z,99271.38
2022-09-04T09:07:04.630Z,99264.80
2022-09-04T09:08:31.892Z,99267.65
2022-09-04T09:10:10.890Z,99270.79
2022-09-04T09:11:21.669Z,99270.44
2022-09-04T09:12:58.284Z,99270.99
2022-09-04T09:14:05.714Z,99269.25
2022-09-04T09:15:42.205Z,99273.14
2022-09-04T09:16:56.372Z,99273.23
2022-09-04T09:18:10.081Z,99273.25
2022-09-04T09:19:39.863Z,99274.05
2022-09-04T09:21:01.163Z,99276.04
2022-09-04T09:22:25.176Z,99277.11
2022-09-04T09:23:44.750Z,99273.86
2022-09-04T09:25:20.804Z,99274.34
2022-09-04T09:26:35.433Z,99283.52
2022-09-04T09:28:14.550Z,99279.33
2022-09-04T09:29:50.949Z,99279.86
2022-09-04T09:31:07.890Z,99280.41
2022-09-04T09:32:24.165Z,99278.58
2022-09-04T09:33:44.430Z,99277.83
2022-09-04T09:35:01.775Z,99279.21
2022-09-04T09:36:27.723Z,99280.16
2022-09-04T09:37:49.605Z,99276.14
2022-09-04T09:39:00.426Z,99273.84
2022-09-04T09:40:37.304Z,99272.66
2022-09-04T09:42:00.822Z,99275.39
2022-09-04T09:43:27.152Z,99269.00
2022-09-04T09:44:49.424Z,99268.83
2022-09-04T09:46:32.653Z,99268.81
2022-09-04T09:48:02.048Z,99271.27
2022-09-04T09:49:30.733Z,99272.46
2022-09-04T09:50:47.235Z,99270.20
2022-09-04T09:52:19.565Z,99270.84
2022-09-04T09:53:46.994Z,99268.65
2022-09-04T09:55:07.774Z,99272.80
2022-09-04T09:56:53.769Z,99269.19
2022-09-04T09:58:22.809Z,99271.67
2022-09-04T09:59:52.363Z,99276.05
2022-09-04T10:01:24.931Z,99271.98
2022-09-04T10:02:45.168Z,99278.33
2022-09-04T10:04:22.626Z,99276.11
2022-09-04T10:05:51.702Z,99279.80
2022-09-04T10:07:38.331Z,99278.20
2022-09-04T10:09:09.493Z,99282.73
2022-09-04T10:10:48.405Z,99280.15
2022-09-04T10:12:31.702Z,99278.13
2022-09-04T10:13:59.546Z,99273.20
2022-09-04T10:15:21.232Z,99268.58
2022-09-04T10:16:43.055Z,99270.61
2022-09-04T10:18:24.344Z,99269.91
2022-09-04T10:19:51.274Z,99270.41
2022-09-04T10:21:50.241Z,99271.94
2022-09-04T10:23:29.369Z,99271.40
2022-09-04T10:24:49.829Z,99268.73
2022-09-04T10:26:19.343Z,99274.87
2022-09-04T10:28:01.993Z,99275.73
2022-09-04T10:29:32.781Z,99276.08
2022-09-04T10:31:13.659Z,99281.55
2022-09-04T10:32:36.881Z,99285.61
2022-09-04T10:33:44.401Z,99284.02
2022-09-04T10:34:58.262Z,99290.02
2022-09-04T10:36:22.754Z,99286.31
2022-09-04T10:37:45.756Z,99282.70
2022-09-04T10:39:47.461Z,99280.83
2022-09-04T10:41:29.880Z,99285.38
2022-09-04T10:43:00.380Z,99275.75
2022-09-04T10:44:11.035Z,99276.25
2022-09-04T10:45:19.918Z,99278.89
2022-09-04T10:46:28.988Z,99279.65
2022-09-04T10:47:53.130Z,99277.88
2022-09-04T10:49:30.524Z,99281.94
2022-09-04T10:50:55.121Z,99285.32
2022-09-04T10:52:24.497Z,99286.55
2022-09-04T10:53:44.953Z,99280.11
2022-09-04T10:55:23.085Z,99279.20
2022-09-04T10:56:45.378Z,99285.79
2022-09-04T10:58:27.657Z,99290.75
2022-09-04T11:00:18.758Z,99286.80
2022-09-04T11:01:43.472Z,99289.54
2022-09-04T11:03:11.264Z,99291.91
2022-09-04T11:04:28.428Z,99289.01
2022-09-04T11:05:45.212Z,99290.59
2022-09-04T11:07:32.029Z,99288.63
2022-09-04T11:08:48.914Z,99285.27
2022-09-04T11:10:24.511Z,99283.63
2022-09-04T11:11:58.672Z,99281.12
2022-09-04T11:13:09.553Z,99282.42
2022-09-04T11:14:44.937Z,99279.91
2022-09-04T11:15:59.789Z,99286.59
2022-09-04T11:17:41.925Z,99285.98
2022-09-04T11:19:11.239Z,99284.88
2022-09-04T11:20:22.288Z,99280.06
2022-09-04T11:21:45.133Z,99278.95
2022-09-04T11:23:18.522Z,99277.21
2022-09-04T11:25:09.734Z,99279.07
2022-09-04T11:26:29.255Z,99276.48
2022-09-04T11:27:47.705Z,99274.23
2022-09-04T11:29:31.061Z,99273.96
2022-09-04T11:30:52.141Z,99275.11
2022-09-04T11:32:13.853Z,99275.72
2022-09-04T11:33:40.040Z,99274.60
2022-09-04T11:35:15.647Z,99276.47
2022-09-04T11:36:44.011Z,99278.67
2022-09-04T11:38:14.972Z,99279.98
2022-09-04T11:39:53.649Z,99281.91
2022-09-04T11:41:29.026Z,99281.45
2022-09-04T11:42:47.129Z,99281.83
2022-09-04T11:44:02.741Z,99291.35
2022-09-04T11:45:41.363Z,99290.92
2022-09-04T11:47:01.729Z,99286.66
2022-09-04T11:48:26.372Z,99286.60
2022-09-04T11:49:59.057Z,99289.64
2022-09-04T11:51:22.041Z,99282.42
2022-09-04T11:52:53.190Z,99283.06
2022-09-04T11:54:17.262Z,99273.52
2022-09-04T11:55:23.419Z,99271.59
2022-09-04T11:56:35.496Z,99271.00
2022-09-04T11:58:09.208Z,99266.60
2022-09-04T11:59:41.848Z,99265.11
2022-09-04T12:01:27.086Z,99271.11
2022-09-04T12:02:49.526Z,99269.70
2022-09-04T12:04:14.698Z,99270.23
2022-09-04T12:05:52.217Z,99266.05
2022-09-04T12:07:25.783Z,99267.14
2022-09-04T12:08:52.130Z,99266.81
2022-09-04T12:10:30.379Z,99269.83
2022-09-04T12:11:47.988Z,99271.81
2022-09-04T12:13:16.835Z,99263.73
2022-09-04T12:14:24.296Z,99260.86
2022-09-04T12:15:45.029Z,99265.16
2022-09-04T12:16:55.668Z,99262.63
2022-09-04T12:18:18.066Z,99260.88
2022-09-04T12:19:39.906Z,99260.23
2022-09-04T12:21:12.404Z,99261.30
2022-09-04T12:22:42.329Z,99262.11
2022-09-04T12:24:01.909Z,99258.38
2022-09-04T12:25:39.898Z,99259.98
2022-09-04T12:26:51.227Z,99258.79
2022-09-04T12:28:29.614Z,99256.38
2022-09-04T12:29:43.760Z,99258.52
2022-09-04T12:31:07.810Z,99257.13
2022-09-04T12:32:22.701Z,99253.42
2022-09-04T12:33:42.804Z,99253.51
2022-09-04T12:35:12.422Z,99252.40
2022-09-04T12:36:33.263Z,99253.23
2022-09-04T12:38:09.679Z,99257.49
2022-09-04T12:39:32.503Z,99260.89
2022-09-04T12:40:51.689Z,99262.39
2022-09-04T12:42:15.066Z,99266.03
2022-09-04T12:43:42.857Z,99261.25
2022-09-04T12:44:47.455Z,99259.30
2022-09-04T12:45:58.629Z,99261.92
2022-09-04T12:47:22.442Z,99260.56
2022-09-04T12:48:42.621Z,99259.87
2022-09-04T12:50:05.933Z,99259.02
2022-09-04T12:51:13.236Z,99257.77
2022-09-04T12:52:19.054Z,99254.57
2022-09-04T12:53:37.800Z,99254.71
2022-09-04T12:54:51.973Z,99251.92
2022-09-04T12:56:05.878Z,99250.29
2022-09-04T12:57:25.904Z,99250.29
2022-09-04T12:58:52.428Z,99252.14
2022-09-04T13:00:08.983Z,99250.39
2022-09-04T13:01:32.073Z,99252.55
2022-09-04T13:02:46.819Z,99252.35
2022-09-04T13:04:08.647Z,99254.25
2022-09-04T13:05:25.881Z,99251.73
2022-09-04T13:06:59.443Z,99252.60
2022-09-04T13:08:38.937Z,99252.97
2022-09-04T13:09:58.712Z,99256.86
2022-09-04T13:11:21.213Z,99262.90
2022-09-04T13:13:00.265Z,99265.04
2022-09-04T13:14:20.259Z,99262.42
2022-09-04T13:15:32.808Z,99264.34
2022-09-04T13:17:23.516Z,99268.74
2022-09-04T13:19:00.404Z,99273.80
2022-09-04T13:20:24.598Z,99273.65
2022-09-04T13:22:19.909Z,99274.11
2022-09-04T13:23:50.724Z,99277.63
2022-09-04T13:25:11.496Z,99273.23
2022-09-04T13:26:38.163Z,99272.06
2022-09-04T13:28:05.126Z,99273.98
2022-09-04T13:29:42.993Z,99272.70
2022-09-04T13:31:24.376Z,99277.43
2022-09-04T13:32:31.973Z,99278.63
2022-09-04T13:34:09.865Z,99278.30
2022-09-04T13:35:28.018Z,99278.30
2022-09-04T13:36:38.557Z,99271.92
2022-09-04T13:38:02.772Z,99272.39
2022-09-04T13:39:07.050Z,99273.00
2022-09-04T13:40:39.670Z,99275.27
2022-09-04T13:42:03.307Z,99278.84
2022-09-04T13:43:17.857Z,99276.09
2022-09-04T13:45:02.071Z,99275.11
2022-09-04T13:46:11.573Z,99272.33
2022-09-04T13:47:32.268Z,99276.64
2022-09-04T13:48:52.201Z,99277.01
2022-09-04T13:50:08.542Z,99271.94
2022-09-04T13:51:16.458Z,99275.55
2022-09-04T13:52:30.259Z,99273.01
2022-09-04T13:53:58.915Z,99274.67
2022-09-04T13:55:12.725Z,99269.71
2022-09-04T13:56:26.302Z,99271.23
2022-09-04T13:57:36.118Z,99274.42
2022-09-04T13:58:47.699Z,99274.21
2022-09-04T13:59:50.923Z,99276.41
2022-09-04T14:00:59.254Z,99275.70
2022-09-04T14:02:08.644Z,99277.42
2022-09-04T14:03:20.217Z,99276.67
2022-09-04T14:04:31.259Z,99275.16
2022-09-04T14:05:37.513Z,99275.70
2022-09-04T14:06:39.942Z,99272.29
2022-09-04T14:07:49.188Z,99273.20
2022-09-04T14:09:05.278Z,99273.90
2022-09-04T14:10:25.807Z,99278.54
2022-09-04T14:11:27.765Z,99278.40
2022-09-04T14:13:00.084Z,99277.04
2022-09-04T14:14:30.782Z,99273.69
2022-09-04T14:15:48.036Z,99270.56
2022-09-04T14:16:50.298Z,99273.93
2022-09-04T14:18:37.898Z,99274.04
2022-09-04T14:19:57.654Z,99275.65
2022-09-04T14:21:21.127Z,99272.21
2022-09-04T14:22:52.224Z,99273.39
2022-09-04T14:24:20.773Z,99273.14
2022-09-04T14:25:38.555Z,99271.39
2022-09-04T14:27:25.021Z,99269.73
2022-09-04T14:28:39.332Z,99271.02
2022-09-04T14:30:02.410Z,99263.20
2022-09-04T14:31:32.628Z,99262.50
2022-09-04T14:32:58.201Z,99259.27
2022-09-04T14:34:19.048Z,99260.57
2022-09-04T14:35:49.442Z,99256.76
2022-09-04T14:37:24.018Z,99262.34
2022-09-04T14:38:42.501Z,99258.95
2022-09-04T14:40:15.681Z,99261.85
2022-09-04T14:41:44.245Z,99262.82
2022-09-04T14:42:58.270Z,99261.78
2022-09-04T14:44:22.584Z,99263.04
2022-09-04T14:45:33.545Z,99268.75
2022-09-04T14:46:47.570Z,99267.51
2022-09-04T14:48:03.575Z,99272.05
2022-09-04T14:49:10.509Z,99273.52
2022-09-04T14:50:17.031Z,99275.99
2022-09-04T14:51:21.393Z,99276.90
2022-09-04T14:52:39.960Z,99277.52
2022-09-04T14:53:49.038Z,99274.41
2022-09-04T14:54:57.961Z,99277.52
2022-09-04T14:56:11.690Z,99276.98
2022-09-04T14:57:42.150Z,99276.52
2022-09-04T14:58:54.228Z,99274.10
2022-09-04T15:00:18.421Z,99273.17
2022-09-04T15:01:23.107Z,99271.49
2022-09-04T15:02:36.631Z,99270.93
2022-09-04T15:03:50.912Z,99269.13
2022-09-04T15:05:03.709Z,99274.27
2022-09-04T15:06:16.223Z,99275.21
2022-09-04T15:07:42.282Z,99274.30
2022-09-04T15:08:45.353Z,99274.94
2022-09-04T15:09:49.999Z,99280.08
2022-09-04T15:11:00.411Z,99278.41
2022-09-04T15:12:26.856Z,99281.30
2022-09-04T15:13:28.466Z,99280.81
2022-09-04T15:14:36.283Z,99279.50
2022-09-04T15:15:51.507Z,99283.08
2022-09-04T15:17:00.685Z,99283.31
2022-09-04T15:18:25.890Z,99283.94
2022-09-04T15:19:55.018Z,99288.48
2022-09-04T15:21:11.349Z,99288.02
2022-09-04T15:22:29.588Z,99287.63
2022-09-04T15:23:43.838Z,99286.47
2022-09-04T15:24:45.396Z,99284.98
2022-09-04T15:26:07.864Z,99284.72
2022-09-04T15:27:19.906Z,99282.95
2022-09-04T15:28:38.372Z,99284.34
2022-09-04T15:29:48.740Z,99286.86
2022-09-04T15:31:10.915Z,99284.89
2022-09-04T15:32:23.540Z,99289.27
2022-09-04T15:33:25.648Z,99287.82
2022-09-04T15:34:29.645Z,99284.20
2022-09-04T15:35:33.936Z,99285.25
2022-09-04T15:36:37.761Z,99287.99
2022-09-04T15:37:42.012Z,99288.27
2022-09-04T15:39:06.289Z,99288.73
2022-09-04T15:40:35.119Z,99289.93
2022-09-04T15:41:44.786Z,99286.79
2022-09-04T15:43:17.160Z,99286.73
2022-09-04T15:44:39.493Z,99285.94
2022-09-04T15:45:53.368Z,99284.68
2022-09-04T15:47:18.206Z,99282.82
2022-09-04T15:48:41.270Z,99286.20
2022-09-04T15:49:59.920Z,99288.11
2022-09-04T15:51:20.113Z,99289.32
2022-09-04T15:52:42.626Z,99287.55
2022-09-04T15:54:12.178Z,99288.77
2022-09-04T15:55:29.936Z,99287.55
2022-09-04T15:56:56.228Z,99289.59
2022-09-04T15:58:29.388Z,99291.04
2022-09-04T15:59:45.403Z,99287.13
2022-09-04T16:01:06.056Z,99288.47
2022-09-04T16:02:54.596Z,99286.11
2022-09-04T16:04:37.517Z,99289.31
2022-09-04T16:05:49.073Z,99289.30
2022-09-04T16:07:22.624Z,99290.75
2022-09-04T16:08:36.564Z,99295.09
2022-09-04T16:09:48.494Z,99292.44
2022-09-04T16:11:02.606Z,99294.59
2022-09-04T16:12:27.949Z,99296.64
2022-09-04T16:13:45.354Z,99299.63